Time;durP1;ratioP1;P1;durP2;ratioP2;P2;SDS_P1;SDS_P2;PMS_P1;PMS_P2;Temp;Humidity;BMP_temperature;BMP_pressure;BME280_temperature;BME280_humidity;BME280_pressure;Samples;Min_cycle;Max_cycle;Signal;HPM_P1;HPM_P2
2022/07/18 00:00:11;;;;;;;3.15;1.90;;;19.40;1.00;;;;;;7375346;19;20483;-71
2022/07/18 00:02:41;;;;;;;5.32;2.17;;;19.40;1.00;;;;;;7397481;19;20109;-70
2022/07/18 00:05:11;;;;;;;5.35;2.28;;;19.40;1.00;;;;;;7372261;19;20010;-71
2022/07/18 00:07:41;;;;;;;4.32;1.98;;;19.30;1.00;;;;;;7374009;19;20085;-71
2022/07/18 00:10:14;;;;;;;6.80;2.10;;;19.40;1.00;;;;;;7375176;19;20006;-71
2022/07/18 00:12:44;;;;;;;3.55;1.60;;;19.30;1.00;;;;;;7375099;19;20010;-71
2022/07/18 00:15:17;;;;;;;3.03;1.98;;;19.30;1.00;;;;;;7375344;19;20014;-71
2022/07/18 00:17:48;;;;;;;;;;;19.30;1.00;;;;;;7396982;19;20003;-71
2022/07/18 00:20:18;;;;;;;3.40;2.00;;;19.20;1.00;;;;;;7375046;19;19921;-72
2022/07/18 00:22:48;;;;;;;4.45;1.77;;;19.20;1.00;;;;;;7374962;19;20077;-71
2022/07/18 00:25:20;;;;;;;3.60;1.90;;;19.00;1.00;;;;;;7372587;19;20094;-71
2022/07/18 00:27:50;;;;;;;2.42;1.73;;;19.00;1.00;;;;;;7374221;19;20006;-71
2022/07/18 00:30:26;;;;;;;4.32;1.70;;;18.90;1.00;;;;;;7374202;19;20533;-71
2022/07/18 00:32:58;;;;;;;4.68;2.00;;;18.80;1.00;;;;;;7373145;19;20018;-71
2022/07/18 00:35:28;;;;;;;3.70;2.25;;;18.80;1.00;;;;;;7395227;19;20027;-72
2022/07/18 00:37:58;;;;;;;8.75;2.33;;;18.70;1.00;;;;;;7372990;19;20085;-71
2022/07/18 00:40:31;;;;;;;4.22;2.10;;;18.60;1.00;;;;;;7374008;19;20027;-72
2022/07/18 00:43:01;;;;;;;4.40;2.00;;;18.50;1.00;;;;;;7373623;19;20466;-71
2022/07/18 00:45:31;;;;;;;3.85;2.20;;;18.50;1.00;;;;;;7371591;19;20328;-70
2022/07/18 00:48:07;;;;;;;8.25;2.47;;;18.50;1.00;;;;;;7373430;19;20018;-71
2022/07/18 00:50:37;;;;;;;3.40;2.20;;;18.50;1.00;;;;;;7395754;19;20409;-71
2022/07/18 00:53:10;;;;;;;3.78;2.20;;;18.30;1.00;;;;;;7372130;19;20086;-72
2022/07/18 00:55:45;;;;;;;3.03;2.13;;;18.30;1.00;;;;;;7373006;19;20025;-71
2022/07/18 00:58:16;;;;;;;6.03;2.20;;;18.30;1.00;;;;;;7373736;19;20017;-71
2022/07/18 01:03:28;;;;;;;4.75;2.25;;;18.20;1.00;;;;;;7373996;19;20062;-70
2022/07/18 01:06:00;;;;;;;4.05;2.45;;;18.20;1.00;;;;;;7370899;19;20121;-71
2022/07/18 01:08:30;;;;;;;3.60;2.40;;;18.10;1.00;;;;;;7395747;19;20006;-71
2022/07/18 01:11:03;;;;;;;4.40;2.45;;;18.20;1.00;;;;;;7373040;19;20077;-70
2022/07/18 01:13:33;;;;;;;6.07;3.03;;;18.10;1.00;;;;;;7372856;19;20023;-70
2022/07/18 01:16:03;;;;;;;6.10;2.85;;;18.10;1.00;;;;;;7370467;19;20010;-70
2022/07/18 01:18:33;;;;;;;6.90;2.60;;;18.10;1.00;;;;;;7372192;19;20497;-70
2022/07/18 01:21:08;;;;;;;6.13;3.00;;;18.00;1.00;;;;;;7372675;19;20021;-71
2022/07/18 01:23:38;;;;;;;5.40;2.20;;;17.90;1.00;;;;;;7393934;19;20021;-70
2022/07/18 01:26:08;;;;;;;3.70;2.70;;;17.70;1.00;;;;;;7369179;19;20520;-71
2022/07/18 01:28:38;;;;;;;3.67;2.53;;;17.70;1.00;;;;;;7371417;19;20017;-70
2022/07/18 01:31:08;;;;;;;2.85;2.15;;;17.50;1.00;;;;;;7371198;19;20550;-71
2022/07/18 01:33:38;;;;;;;4.35;2.33;;;17.50;1.00;;;;;;7371671;19;20006;-71
2022/07/18 01:36:11;;;;;;;7.57;2.50;;;17.50;1.00;;;;;;7371218;19;20011;-71
2022/07/18 01:38:41;;;;;;;7.05;2.80;;;17.50;1.00;;;;;;7394287;19;20014;-70
2022/07/18 01:41:11;;;;;;;5.60;2.45;;;17.30;1.00;;;;;;7371691;19;20074;-70
2022/07/18 01:43:43;;;;;;;3.60;2.22;;;17.30;1.00;;;;;;7372334;19;20493;-71
2022/07/18 01:46:14;;;;;;;3.72;2.25;;;17.10;1.00;;;;;;7371416;19;20479;-70
2022/07/18 01:48:44;;;;;;;3.65;2.40;;;17.10;1.00;;;;;;7371867;19;20007;-70
2022/07/18 01:51:16;;;;;;;5.13;2.55;;;17.10;1.00;;;;;;7371328;19;20439;-71
2022/07/18 01:53:59;;;;;;;4.80;2.25;;;17.10;1.00;;;;;;7392971;19;20018;-69
2022/07/18 01:56:31;;;;;;;2.75;2.00;;;17.10;1.00;;;;;;7369830;19;20082;-71
2022/07/18 01:59:06;;;;;;;5.13;2.60;;;17.00;1.00;;;;;;7370997;19;20031;-72
2022/07/18 02:01:36;;;;;;;5.72;2.47;;;17.00;1.00;;;;;;7371970;19;20494;-71
2022/07/18 02:04:07;;;;;;;4.85;2.65;;;17.00;1.00;;;;;;7369353;19;20072;-71
2022/07/18 02:06:39;;;;;;;4.03;2.45;;;17.00;1.00;;;;;;7370491;19;20078;-71
2022/07/18 02:09:10;;;;;;;7.80;3.10;;;16.90;1.00;;;;;;7371852;19;20362;-70
2022/07/18 02:11:40;;;;;;;7.10;2.97;;;17.00;1.00;;;;;;7392648;19;20082;-71
2022/07/18 02:14:10;;;;;;;10.35;3.50;;;17.00;1.00;;;;;;7371248;19;20007;-71
2022/07/18 02:16:40;;;;;;;5.60;2.72;;;17.00;1.00;;;;;;7368561;19;20034;-71
2022/07/18 02:19:10;;;;;;;6.78;2.65;;;16.90;1.00;;;;;;7371720;19;20017;-71
2022/07/18 02:21:43;;;;;;;2.80;2.25;;;16.80;1.00;;;;;;7370524;19;20010;-71
2022/07/18 02:24:13;;;;;;;7.55;2.55;;;16.80;1.00;;;;;;7370671;19;20566;-70
2022/07/18 02:26:42;;;;;;;4.93;2.92;;;16.80;1.00;;;;;;7390223;19;20025;-72
2022/07/18 02:29:12;;;;;;;7.65;2.95;;;16.80;1.00;;;;;;7369893;19;20013;-71
2022/07/18 02:31:42;;;;;;;5.72;2.80;;;16.70;1.00;;;;;;7369743;19;20392;-71
2022/07/18 02:34:12;;;;;;;5.95;3.00;;;16.70;1.00;;;;;;7371114;19;20518;-71
2022/07/18 02:36:45;;;;;;;5.45;3.08;;;16.60;1.00;;;;;;7369004;19;20003;-72
2022/07/18 02:39:15;;;;;;;7.03;2.50;;;16.60;1.00;;;;;;7370529;19;20022;-71
2022/07/18 02:41:45;;;;;;;9.18;3.00;;;16.50;1.00;;;;;;7391196;19;20090;-71
2022/07/18 02:44:15;;;;;;;5.63;2.83;;;16.50;1.00;;;;;;7370382;19;20343;-70
2022/07/18 02:46:45;;;;;;;5.07;2.47;;;16.40;1.00;;;;;;7367618;19;20074;-70
2022/07/18 02:52:03;;;;;;;6.03;2.80;;;16.30;1.00;;;;;;7369590;19;20090;-70
2022/07/18 02:54:34;;;;;;;6.20;2.40;;;16.30;1.00;;;;;;7369917;19;20002;-73
2022/07/18 02:57:05;;;;;;;5.63;2.58;;;16.10;1.00;;;;;;7367651;19;20538;-70
2022/07/18 02:59:35;;;;;;;2.90;2.53;;;16.10;1.00;;;;;;7391450;19;20022;-71
2022/07/18 03:02:05;;;;;;;3.45;2.60;;;16.10;1.00;;;;;;7369882;19;20013;-70
2022/07/18 03:04:35;;;;;;;6.38;2.50;;;16.10;1.00;;;;;;7369311;19;20083;-71
2022/07/18 03:07:08;;;;;;;4.93;2.65;;;16.00;1.00;;;;;;7368015;19;20101;-71
2022/07/18 03:09:38;;;;;;;6.03;2.75;;;15.80;1.00;;;;;;7370455;19;20009;-72
2022/07/18 03:12:08;;;;;;;3.97;2.47;;;15.80;1.00;;;;;;7369013;19;20021;-71
2022/07/18 03:14:38;;;;;;;4.05;2.40;;;15.70;1.00;;;;;;7391084;19;20077;-70
2022/07/18 03:17:08;;;;;;;3.95;2.33;;;15.80;1.00;;;;;;7366633;19;20010;-70
2022/07/18 03:19:38;;;;;;;3.17;2.40;;;15.70;1.00;;;;;;7368967;19;20495;-70
2022/07/18 03:22:10;;;;;;;6.93;3.03;;;15.70;1.00;;;;;;7368192;19;20085;-71
2022/07/18 03:24:40;;;;;;;3.42;2.30;;;15.60;1.00;;;;;;7368856;19;20494;-70
2022/07/18 03:27:10;;;;;;;3.45;2.40;;;15.70;1.00;;;;;;7366313;19;20014;-70
2022/07/18 03:29:40;;;;;;;4.97;2.95;;;15.60;1.00;;;;;;7391091;19;20117;-70
2022/07/18 03:32:10;;;;;;;9.70;2.92;;;15.70;1.00;;;;;;7368403;19;20011;-69
2022/07/18 03:34:40;;;;;;;4.07;2.33;;;15.70;1.00;;;;;;7368888;19;20102;-71
2022/07/18 03:37:13;;;;;;;4.47;2.70;;;15.70;1.00;;;;;;7368026;19;20010;-70
2022/07/18 03:39:44;;;;;;;3.78;2.90;;;15.70;1.00;;;;;;7368454;19;20066;-71
2022/07/18 03:42:14;;;;;;;3.85;2.80;;;15.70;1.00;;;;;;7369706;19;20471;-70
2022/07/18 03:44:43;;;;;;;6.82;2.67;;;15.70;1.00;;;;;;7390079;19;20402;-70
2022/07/18 03:47:13;;;;;;;4.38;2.78;;;15.80;1.00;;;;;;7366149;19;20010;-70
2022/07/18 03:49:43;;;;;;;4.57;3.17;;;15.80;1.00;;;;;;7367739;19;20081;-71
2022/07/18 03:52:16;;;;;;;7.07;2.60;;;15.90;1.00;;;;;;7368214;19;20006;-70
2022/07/18 03:54:46;;;;;;;3.53;2.55;;;15.90;1.00;;;;;;7366886;19;20522;-70
2022/07/18 03:57:15;;;;;;;7.38;2.83;;;16.40;1.00;;;;;;7366131;19;20082;-71
2022/07/18 03:59:45;;;;;;;5.78;2.72;;;16.90;1.00;;;;;;7389305;19;20013;-71
2022/07/18 04:02:18;;;;;;;4.85;2.53;;;17.40;1.00;;;;;;7367630;19;20095;-71
2022/07/18 04:04:48;;;;;;;4.80;2.85;;;17.90;1.00;;;;;;7367131;19;20013;-71
2022/07/18 04:07:20;;;;;;;3.88;2.60;;;18.10;1.00;;;;;;7365166;19;20480;-71
2022/07/18 04:09:50;;;;;;;5.20;2.92;;;18.70;1.00;;;;;;7367479;19;20019;-70
2022/07/18 04:12:20;;;;;;;3.70;2.70;;;19.00;1.00;;;;;;7367841;19;20014;-71
2022/07/18 04:14:50;;;;;;;5.60;3.13;;;19.40;1.00;;;;;;7388763;19;20014;-71
2022/07/18 04:17:20;;;;;;;7.20;3.13;;;20.00;1.00;;;;;;7365215;19;20013;-70
2022/07/18 04:19:50;;;;;;;4.45;2.60;;;20.50;1.00;;;;;;7366741;19;20007;-71
2022/07/18 04:22:22;;;;;;;3.97;3.05;;;20.70;1.00;;;;;;7367119;19;20086;-72
2022/07/18 04:24:52;;;;;;;5.38;3.03;;;20.70;1.00;;;;;;7365971;19;20009;-71
2022/07/18 04:27:25;;;;;;;4.10;2.63;;;21.60;1.00;;;;;;7366783;19;20019;-73
2022/07/18 04:29:55;;;;;;;5.82;2.90;;;21.40;1.00;;;;;;7373882;19;20031;-71
2022/07/18 04:32:25;;;;;;;4.70;2.53;;;21.80;1.00;;;;;;7396182;19;20006;-71
2022/07/18 04:34:54;;;;;;;3.70;2.25;;;22.10;1.00;;;;;;7374487;19;20528;-71
2022/07/18 04:37:27;;;;;;;5.15;2.50;;;21.90;1.00;;;;;;7372819;19;20010;-69
2022/07/18 04:39:57;;;;;;;3.88;2.60;;;22.00;1.00;;;;;;7373922;19;20093;-70
2022/07/18 04:42:27;;;;;;;3.90;2.30;;;22.50;1.00;;;;;;7374075;19;20409;-70
2022/07/18 04:44:56;;;;;;;3.05;2.28;;;22.60;1.00;;;;;;7373707;19;20034;-71
2022/07/18 04:47:26;;;;;;;5.47;2.47;;;23.00;1.00;;;;;;7392433;19;20011;-70
2022/07/18 04:49:58;;;;;;;4.55;2.20;;;23.00;1.00;;;;;;7373202;19;20040;-70
2022/07/18 04:52:40;;;;;;;5.22;2.80;;;23.40;1.00;;;;;;7373211;19;20081;-73
2022/07/18 04:55:12;;;;;;;4.85;2.38;;;23.50;1.00;;;;;;7372785;19;20093;-72
2022/07/18 04:57:42;;;;;;;5.53;2.90;;;23.80;1.00;;;;;;7372066;19;20523;-71
2022/07/18 05:00:15;;;;;;;4.82;3.03;;;23.70;1.00;;;;;;7373372;19;20019;-71
2022/07/18 05:02:47;;;;;;;5.35;3.08;;;24.40;1.00;;;;;;7395079;19;20011;-71
2022/07/18 05:05:19;;;;;;;4.68;3.28;;;24.10;1.00;;;;;;7372691;19;20015;-71
2022/07/18 05:07:51;;;;;;;7.45;3.00;;;23.80;1.00;;;;;;7369671;19;20010;-71
2022/07/18 05:10:24;;;;;;;5.75;3.22;;;24.70;1.00;;;;;;7373110;19;20385;-70
2022/07/18 05:12:56;;;;;;;11.02;3.30;;;25.40;1.00;;;;;;7372105;19;20077;-70
2022/07/18 05:15:28;;;;;;;4.38;2.90;;;24.30;1.00;;;;;;7370026;19;20356;-71
2022/07/18 05:17:58;;;;;;;4.07;3.10;;;24.70;1.00;;;;;;7371223;19;20502;-71
2022/07/18 05:20:29;;;;;;;8.10;3.15;;;25.50;1.00;;;;;;7392676;19;20010;-71
2022/07/18 05:23:01;;;;;;;5.45;3.50;;;24.40;1.00;;;;;;7371506;19;20537;-72
2022/07/18 05:25:31;;;;;;;4.75;3.10;;;25.00;1.00;;;;;;7369633;19;20382;-70
2022/07/18 05:28:01;;;;;;;6.13;3.38;;;25.60;1.00;;;;;;7371549;19;20463;-71
2022/07/18 05:30:31;;;;;;;6.13;2.95;;;25.90;1.00;;;;;;7371710;19;20014;-70
2022/07/18 05:33:02;;;;;;;5.85;2.80;;;25.10;1.00;;;;;;7371391;19;20014;-71
2022/07/18 05:35:37;;;;;;;4.28;2.65;;;26.00;1.00;;;;;;7392851;19;20023;-70
2022/07/18 05:38:10;;;;;;;6.88;3.38;;;25.30;1.00;;;;;;7370675;19;20478;-70
2022/07/18 05:40:40;;;;;;;6.25;3.40;;;25.10;1.00;;;;;;7369972;19;20478;-71
2022/07/18 05:43:10;;;;;;;6.07;3.03;;;24.80;1.00;;;;;;7371310;19;20017;-71
2022/07/18 05:45:42;;;;;;;5.93;2.85;;;25.30;1.00;;;;;;7369876;19;20783;-71
2022/07/18 05:48:12;;;;;;;8.55;3.33;;;26.50;1.00;;;;;;7370684;19;20075;-72
2022/07/18 05:50:42;;;;;;;4.82;3.10;;;25.20;1.00;;;;;;7393136;19;20085;-70
2022/07/18 05:53:15;;;;;;;3.63;3.00;;;24.80;1.00;;;;;;7371159;19;20086;-71
2022/07/18 05:55:45;;;;;;;5.28;3.20;;;25.10;1.00;;;;;;7370115;19;20082;-71
2022/07/18 05:58:15;;;;;;;6.93;3.47;;;24.60;1.00;;;;;;7370780;19;20006;-71
2022/07/18 06:00:45;;;;;;;5.28;3.50;;;24.40;1.00;;;;;;7369642;19;20002;-71
2022/07/18 06:03:15;;;;;;;6.55;2.75;;;23.80;1.00;;;;;;7372042;19;20082;-70
2022/07/18 06:05:45;;;;;;;5.28;3.13;;;23.70;1.00;;;;;;7391297;19;20490;-71
2022/07/18 06:08:18;;;;;;;6.40;3.25;;;23.10;1.00;;;;;;7367303;19;20534;-71
2022/07/18 06:10:48;;;;;;;11.68;3.03;;;22.00;1.00;;;;;;7369548;19;20014;-71
2022/07/18 06:13:17;;;;;;;5.22;3.00;;;22.70;1.00;;;;;;7369445;19;20631;-72
2022/07/18 06:15:48;;;;;;;11.63;3.08;;;23.50;1.00;;;;;;7369537;19;20390;-71
2022/07/18 06:18:18;;;;;;;4.60;2.40;;;24.70;1.00;;;;;;7368678;19;20039;-71
2022/07/18 06:20:47;;;;;;;5.10;2.47;;;24.30;1.00;;;;;;7390911;19;20086;-70
2022/07/18 06:23:20;;;;;;;4.60;2.42;;;23.80;1.00;;;;;;7369607;19;20472;-72
2022/07/18 06:25:50;;;;;;;6.78;3.00;;;23.60;1.00;;;;;;7367138;19;20088;-69
2022/07/18 06:28:20;;;;;;;4.95;2.92;;;23.50;1.00;;;;;;7368353;19;20010;-70
2022/07/18 06:30:49;;;;;;;3.67;2.80;;;23.60;1.00;;;;;;7369469;19;20366;-71
2022/07/18 06:33:19;;;;;;;5.57;2.40;;;24.10;1.00;;;;;;7370001;19;20047;-70
2022/07/18 06:35:49;;;;;;;4.30;2.83;;;24.30;1.00;;;;;;7390777;19;20090;-71
2022/07/18 06:38:22;;;;;;;8.52;2.95;;;25.50;1.00;;;;;;7370107;19;20023;-71
2022/07/18 06:40:52;;;;;;;5.50;2.60;;;25.20;1.00;;;;;;7368791;19;20009;-71
2022/07/18 06:43:22;;;;;;;4.72;2.60;;;25.50;1.00;;;;;;7369381;19;20039;-71
2022/07/18 06:45:53;;;;;;;6.82;2.88;;;25.10;1.00;;;;;;7368869;19;20014;-71
2022/07/18 06:48:23;;;;;;;6.03;2.58;;;25.40;1.00;;;;;;7369825;19;20010;-71
2022/07/18 06:50:53;;;;;;;4.03;2.38;;;24.70;1.00;;;;;;7369437;19;20078;-71
2022/07/18 06:53:26;;;;;;;3.35;2.40;;;23.60;1.00;;;;;;7391641;19;20017;-71
2022/07/18 06:55:57;;;;;;;6.07;2.13;;;23.10;1.00;;;;;;7367885;19;20016;-70
2022/07/18 06:58:30;;;;;;;4.45;2.35;;;23.00;1.00;;;;;;7368454;19;20523;-71
2022/07/18 07:01:00;;;;;;;3.75;2.25;;;23.10;1.00;;;;;;7368494;19;20542;-71
2022/07/18 07:03:30;;;;;;;4.78;2.47;;;23.00;1.00;;;;;;7368383;19;20023;-71
2022/07/18 07:06:00;;;;;;;4.82;2.25;;;23.30;1.00;;;;;;7367090;19;20044;-71
2022/07/18 07:08:33;;;;;;;6.22;2.60;;;23.50;1.00;;;;;;7388356;19;20031;-71
2022/07/18 07:11:03;;;;;;;4.80;3.20;;;23.80;1.00;;;;;;7367981;19;20084;-71
2022/07/18 07:13:33;;;;;;;7.90;2.72;;;24.10;1.00;;;;;;7368067;19;20084;-71
2022/07/18 07:16:03;;;;;;;5.32;2.80;;;23.80;1.00;;;;;;7367841;19;20010;-70
2022/07/18 07:18:34;;;;;;;4.95;2.17;;;23.90;1.00;;;;;;7366589;19;20367;-71
2022/07/18 07:21:04;;;;;;;9.23;2.83;;;23.90;1.00;;;;;;7368895;19;20574;-71
2022/07/18 07:23:37;;;;;;;3.85;2.70;;;24.10;1.00;;;;;;7389886;19;20021;-71
2022/07/18 07:26:07;;;;;;;9.48;2.10;;;24.30;1.00;;;;;;7364404;19;20509;-70
2022/07/18 07:28:37;;;;;;;7.05;2.45;;;23.80;1.00;;;;;;7366189;19;20011;-70
2022/07/18 07:31:08;;;;;;;3.35;2.13;;;23.80;1.00;;;;;;7365174;19;20434;-70
2022/07/18 07:33:38;;;;;;;3.95;2.10;;;24.40;1.00;;;;;;7366060;19;20124;-69
2022/07/18 07:36:08;;;;;;;6.18;2.20;;;24.80;1.00;;;;;;7365773;19;20074;-70
2022/07/18 07:38:41;;;;;;;5.40;2.13;;;24.50;1.00;;;;;;7388969;19;20015;-71
2022/07/18 07:41:13;;;;;;;7.45;2.50;;;24.60;1.00;;;;;;7366284;19;20078;-70
2022/07/18 07:43:43;;;;;;;4.30;2.20;;;24.80;1.00;;;;;;7366692;19;20010;-71
2022/07/18 07:46:13;;;;;;;2.70;2.00;;;24.80;1.00;;;;;;7364717;19;20015;-72
2022/07/18 07:48:43;;;;;;;5.10;2.08;;;25.40;1.00;;;;;;7365658;19;20078;-71
2022/07/18 07:51:13;;;;;;;3.42;1.92;;;25.00;1.00;;;;;;7364844;19;20031;-71
2022/07/18 07:53:47;;;;;;;8.43;2.13;;;24.90;1.00;;;;;;7388299;19;20019;-71
2022/07/18 07:56:19;;;;;;;5.97;2.08;;;25.40;1.00;;;;;;7363238;19;20017;-70
2022/07/18 07:58:49;;;;;;;2.70;1.80;;;25.40;1.00;;;;;;7365874;19;20502;-71
2022/07/18 08:01:19;;;;;;;3.00;1.80;;;25.00;1.00;;;;;;7364468;19;20027;-71
2022/07/18 08:03:50;;;;;;;3.90;1.85;;;25.40;1.00;;;;;;7371978;19;20031;-72
2022/07/18 08:06:20;;;;;;;3.92;1.95;;;25.50;1.00;;;;;;7373070;19;20014;-73
2022/07/18 08:08:53;;;;;;;3.72;1.70;;;25.80;1.00;;;;;;7369726;19;20026;-71
2022/07/18 08:11:28;;;;;;;3.35;1.80;;;25.40;1.00;;;;;;7363466;19;20014;-70
2022/07/18 08:13:59;;;;;;;3.08;1.52;;;25.80;1.00;;;;;;7364443;19;20018;-71
2022/07/18 08:16:29;;;;;;;6.05;2.08;;;25.80;1.00;;;;;;7361781;19;20018;-72
2022/07/18 08:18:59;;;;;;;5.40;3.80;;;26.00;1.00;;;;;;7362695;19;20007;-71
2022/07/18 08:21:29;;;;;;;2.67;1.90;;;26.30;1.00;;;;;;7358747;19;20021;-73
2022/07/18 08:24:02;;;;;;;3.15;1.70;;;26.10;1.00;;;;;;7365287;19;20482;-71
2022/07/18 08:26:38;;;;;;;3.20;2.05;;;26.30;1.00;;;;;;7385236;19;20021;-72
2022/07/18 08:29:09;;;;;;;5.60;1.90;;;26.50;1.00;;;;;;7358568;19;20013;-71
2022/07/18 08:31:39;;;;;;;4.00;2.30;;;26.70;1.00;;;;;;7353596;19;20036;-71
2022/07/18 08:34:10;;;;;;;4.30;1.75;;;26.80;1.00;;;;;;7364294;19;20120;-72
2022/07/18 08:36:41;;;;;;;6.43;2.10;;;26.40;1.00;;;;;;7364623;19;21160;-71
2022/07/18 08:39:14;;;;;;;3.50;2.00;;;26.40;1.00;;;;;;7360693;19;20740;-70
2022/07/18 08:41:47;;;;;;;4.07;1.70;;;26.50;1.00;;;;;;7373793;19;20027;-72
2022/07/18 08:44:16;;;;;;;3.15;1.70;;;26.80;1.00;;;;;;7366036;19;20077;-72
2022/07/18 08:46:51;;;;;;;2.80;1.75;;;26.90;1.00;;;;;;7362468;19;20448;-71
2022/07/18 08:49:21;;;;;;;4.85;1.92;;;26.80;1.00;;;;;;7361283;19;20015;-72
2022/07/18 08:51:52;;;;;;;2.53;1.73;;;26.60;1.00;;;;;;7349723;19;20018;-71
2022/07/18 08:54:24;;;;;;;4.65;1.85;;;26.60;1.00;;;;;;7362583;19;20388;-71
2022/07/18 08:56:54;;;;;;;5.05;1.80;;;27.20;1.00;;;;;;7362049;19;20495;-72
2022/07/18 08:59:24;;;;;;;5.15;2.20;;;27.20;1.00;;;;;;7379375;19;20363;-71
2022/07/18 09:01:54;;;;;;;5.20;2.10;;;27.30;1.00;;;;;;7350702;19;20014;-72
2022/07/18 09:04:40;;;;;;;3.50;1.83;;;27.50;1.00;;;;;;7366292;19;20021;-73
2022/07/18 09:07:27;;;;;;;4.82;2.00;;;27.30;1.00;;;;;;7359599;19;20044;-71
2022/07/18 09:10:02;;;;;;;3.30;1.92;;;27.20;1.00;;;;;;7348412;19;20678;-72
2022/07/18 09:12:33;;;;;;;5.30;2.08;;;27.50;1.00;;;;;;7364482;19;20027;-71
2022/07/18 09:15:10;;;;;;;4.90;2.00;;;27.60;1.00;;;;;;7363866;19;20015;-72
2022/07/18 09:17:41;;;;;;;4.43;2.10;;;28.00;1.00;;;;;;7382882;19;20024;-72
2022/07/18 09:20:14;;;;;;;2.05;1.60;;;27.80;1.00;;;;;;7348225;19;20007;-74
2022/07/18 09:22:47;;;;;;;2.72;1.85;;;27.90;1.00;;;;;;7365150;19;20015;-73
2022/07/18 09:25:24;;;;;;;3.72;1.85;;;28.10;1.00;;;;;;7366151;19;20014;-72
2022/07/18 09:27:57;;;;;;;4.40;1.83;;;28.10;1.00;;;;;;7362317;19;20043;-72
2022/07/18 09:30:35;;;;;;;7.93;2.08;;;28.10;1.00;;;;;;7348752;19;20303;-72
2022/07/18 09:33:11;;;;;;;4.90;2.00;;;28.40;1.00;;;;;;7365309;19;20021;-74
2022/07/18 09:35:47;;;;;;;4.85;2.17;;;28.40;1.00;;;;;;7384978;19;20027;-72
2022/07/18 09:38:20;;;;;;;5.30;2.08;;;28.70;1.00;;;;;;7359668;19;20024;-73
2022/07/18 09:40:57;;;;;;;2.97;1.60;;;28.70;1.00;;;;;;7349732;19;20045;-73
2022/07/18 09:43:29;;;;;;;5.35;1.83;;;28.70;1.00;;;;;;7365019;19;20017;-71
2022/07/18 09:46:07;;;;;;;3.78;1.75;;;28.20;1.00;;;;;;7364207;19;20014;-71
2022/07/18 09:48:45;;;;;;;6.18;1.80;;;28.50;1.00;;;;;;7357218;19;20013;-72
2022/07/18 09:51:18;;;;;;;4.20;1.60;;;28.60;1.00;;;;;;7349030;19;20086;-72
2022/07/18 09:53:48;;;;;;;2.50;1.48;;;28.70;1.00;;;;;;7386120;19;20454;-72
2022/07/18 09:56:29;;;;;;;3.80;1.88;;;28.90;1.00;;;;;;7362524;19;20577;-73
2022/07/18 09:58:59;;;;;;;5.60;1.90;;;29.00;1.00;;;;;;7354748;19;20006;-72
2022/07/18 10:01:31;;;;;;;3.83;2.20;;;28.50;1.00;;;;;;7348260;19;20095;-72
2022/07/18 10:04:02;;;;;;;6.00;1.83;;;29.00;1.00;;;;;;7365565;19;20042;-71
2022/07/18 10:06:34;;;;;;;2.72;1.70;;;29.20;1.00;;;;;;7363029;19;20921;-72
2022/07/18 10:09:06;;;;;;;7.32;1.98;;;29.20;1.00;;;;;;7358588;19;21717;-73
2022/07/18 10:11:39;;;;;;;3.80;1.50;;;29.30;1.00;;;;;;7369708;19;20500;-72
2022/07/18 10:14:09;;;;;;;5.30;1.53;;;29.60;1.00;;;;;;7363259;19;20034;-73
2022/07/18 10:16:51;;;;;;;2.50;1.48;;;29.60;1.00;;;;;;7362655;19;20010;-72
2022/07/18 10:19:22;;;;;;;1.77;1.67;;;29.00;1.00;;;;;;7359952;19;20465;-72
2022/07/18 10:21:52;;;;;;;2.60;1.58;;;29.10;1.00;;;;;;7349020;19;20017;-72
2022/07/18 10:24:23;;;;;;;1.80;1.60;;;29.40;1.00;;;;;;7362463;19;20014;-72
2022/07/18 10:27:18;;;;;;;1.67;1.50;;;29.60;1.00;;;;;;7363959;19;20021;-74
2022/07/18 10:30:16;;;;;;;6.75;1.65;;;29.70;1.00;;;;;;7369335;19;20023;-73
2022/07/18 10:32:49;;;;;;;3.85;1.23;;;29.70;1.00;;;;;;7363228;19;20033;-71
2022/07/18 10:35:42;;;;;;;2.08;1.40;;;29.50;1.00;;;;;;7361740;19;20510;-73
2022/07/18 10:38:22;;;;;;;1.90;1.17;;;29.40;1.00;;;;;;7356690;19;20006;-72
2022/07/18 10:41:05;;;;;;;2.92;1.55;;;29.40;1.00;;;;;;7348857;19;20820;-71
2022/07/18 10:43:44;;;;;;;4.03;1.50;;;29.50;1.00;;;;;;7360190;19;20766;-72
2022/07/18 10:46:17;;;;;;;1.67;1.48;;;29.80;1.00;;;;;;7360493;19;20015;-72
2022/07/18 10:48:59;;;;;;;1.98;1.30;;;29.90;1.00;;;;;;7358110;19;20043;-71
2022/07/18 10:51:37;;;;;;;4.43;1.35;;;29.80;1.00;;;;;;7343974;19;20138;-72
2022/07/18 10:54:16;;;;;;;2.85;1.40;;;29.90;1.00;;;;;;7361592;19;20507;-71
2022/07/18 10:57:18;;;;;;;3.17;1.52;;;29.60;1.00;;;;;;7379321;19;20058;-75
2022/07/18 11:00:12;;;;;;;3.72;1.42;;;29.60;1.00;;;;;;7242366;19;2004154;-74
2022/07/18 11:02:51;;;;;;;3.78;1.90;;;29.70;1.00;;;;;;7384358;19;20023;-72
2022/07/18 11:05:45;;;;;;;2.42;1.58;;;29.70;1.00;;;;;;7360179;19;20494;-74
2022/07/18 11:08:24;;;;;;;3.03;1.67;;;29.60;1.00;;;;;;7356078;19;20003;-73
2022/07/18 11:11:15;;;;;;;2.40;1.45;;;30.10;1.00;;;;;;7345749;19;20086;-72
2022/07/18 11:13:55;;;;;;;1.65;1.55;;;30.30;1.00;;;;;;7359572;19;20019;-71
2022/07/18 11:16:27;;;;;;;3.20;1.45;;;30.40;1.00;;;;;;7356294;19;20014;-72
2022/07/18 11:19:20;;;;;;;1.92;1.42;;;30.40;1.00;;;;;;7355702;19;20006;-72
2022/07/18 11:22:00;;;;;;;1.77;1.40;;;30.40;1.00;;;;;;7343589;19;20086;-71
2022/07/18 11:24:31;;;;;;;1.50;1.40;;;30.50;1.00;;;;;;7359095;19;20013;-72
2022/07/18 11:27:06;;;;;;;1.95;1.42;;;30.20;1.00;;;;;;7355613;19;20052;-72
2022/07/18 11:29:46;;;;;;;2.60;1.60;;;30.20;1.00;;;;;;7371226;19;20096;-71
2022/07/18 11:32:25;;;;;;;2.70;1.30;;;30.20;1.00;;;;;;7354667;19;20493;-72
2022/07/18 11:34:55;;;;;;;3.28;1.70;;;30.40;1.00;;;;;;7359333;19;20082;-71
2022/07/18 11:37:25;;;;;;;1.73;1.35;;;30.80;1.00;;;;;;7366019;19;20021;-71
2022/07/18 11:39:55;;;;;;;1.30;1.17;;;30.70;1.00;;;;;;7353679;19;20010;-72
2022/07/18 11:42:38;;;;;;;2.13;1.42;;;30.70;1.00;;;;;;7366706;19;20078;-70
2022/07/18 11:45:09;;;;;;;1.20;1.02;;;30.70;1.00;;;;;;7364467;19;20529;-71
2022/07/18 11:47:51;;;;;;;1.77;1.42;;;30.70;1.00;;;;;;7380976;19;20150;-72
2022/07/18 11:50:37;;;;;;;3.17;1.73;;;30.50;1.00;;;;;;7343469;19;20018;-73
2022/07/18 11:53:07;;;;;;;1.77;1.20;;;30.50;1.00;;;;;;7363372;19;20011;-73
2022/07/18 11:55:39;;;;;;;2.53;1.38;;;30.60;1.00;;;;;;7362807;19;20416;-73
2022/07/18 11:58:10;;;;;;;2.53;1.48;;;30.80;1.00;;;;;;7358566;19;20077;-74
2022/07/18 12:00:41;;;;;;;3.47;1.48;;;31.30;1.00;;;;;;7343759;19;20014;-73
2022/07/18 12:03:15;;;;;;;2.60;1.80;;;31.10;1.00;;;;;;7366584;19;20070;-73
2022/07/18 12:05:48;;;;;;;2.30;1.20;;;30.90;1.00;;;;;;7387849;19;20093;-73
2022/07/18 12:08:29;;;;;;;1.50;1.20;;;31.10;1.00;;;;;;7363002;19;20022;-73
2022/07/18 12:11:06;;;;;;;2.35;1.35;;;31.10;1.00;;;;;;7345568;19;20474;-72
2022/07/18 12:13:44;;;;;;;2.65;1.30;;;31.10;1.00;;;;;;7365729;19;20090;-72
2022/07/18 12:16:36;;;;;;;4.20;1.20;;;31.20;1.00;;;;;;7365582;19;20119;-71
2022/07/18 12:19:15;;;;;;;4.95;3.22;;;31.30;1.00;;;;;;7361089;19;20014;-73
2022/07/18 12:21:54;;;;;;;1.70;1.35;;;31.20;1.00;;;;;;7348166;19;20007;-74
2022/07/18 12:24:35;;;;;;;2.92;1.48;;;31.30;1.00;;;;;;7368003;19;20525;-73
2022/07/18 12:27:13;;;;;;;2.33;1.30;;;31.20;1.00;;;;;;7363171;19;20018;-74
2022/07/18 12:30:09;;;;;;;2.97;1.67;;;31.20;1.00;;;;;;7377961;19;20427;-73
2022/07/18 12:32:43;;;;;;;1.77;1.13;;;31.20;1.00;;;;;;7364225;19;20055;-73
2022/07/18 12:35:22;;;;;;;2.13;1.30;;;31.20;1.00;;;;;;7366010;19;20014;-73
2022/07/18 12:38:00;;;;;;;3.50;1.40;;;31.10;1.00;;;;;;7367313;19;20015;-71
2022/07/18 12:40:47;;;;;;;3.47;1.58;;;30.70;1.00;;;;;;7344631;19;20021;-75
2022/07/18 12:43:19;;;;;;;4.25;1.30;;;31.20;1.00;;;;;;7364593;19;20034;-75
2022/07/18 12:45:56;;;;;;;5.43;1.77;;;31.20;1.00;;;;;;7364683;19;20082;-76
2022/07/18 12:48:28;;;;;;;2.10;1.50;;;31.30;1.00;;;;;;7359196;19;20010;-76
2022/07/18 12:51:06;;;;;;;4.45;1.65;;;30.90;1.00;;;;;;7345841;19;20025;-76
2022/07/18 12:53:41;;;;;;;3.03;1.40;;;31.10;1.00;;;;;;7386661;19;20011;-75
2022/07/18 12:56:12;;;;;;;3.92;1.40;;;31.10;1.00;;;;;;7363671;19;20034;-76
2022/07/18 12:58:42;;;;;;;2.80;1.20;;;31.00;1.00;;;;;;7361159;19;20498;-76
2022/07/18 13:01:15;;;;;;;1.60;1.30;;;30.90;1.00;;;;;;7345984;19;20007;-76
2022/07/18 13:03:45;;;;;;;1.60;1.20;;;31.20;1.00;;;;;;7364835;19;20022;-75
2022/07/18 13:06:19;;;;;;;2.83;1.40;;;31.20;1.00;;;;;;7365392;19;20024;-75
2022/07/18 13:08:52;;;;;;;4.20;1.30;;;31.60;1.00;;;;;;7381492;19;20014;-76
2022/07/18 13:11:24;;;;;;;2.03;1.30;;;31.80;1.00;;;;;;7346248;19;20041;-76
2022/07/18 13:14:00;;;;;;;1.30;1.20;;;31.90;1.00;;;;;;7361780;19;20026;-75
2022/07/18 13:16:32;;;;;;;2.30;1.45;;;31.90;1.00;;;;;;7362251;19;20013;-76
2022/07/18 13:19:05;;;;;;;2.83;1.40;;;32.00;1.00;;;;;;7357497;19;20006;-77
2022/07/18 13:21:39;;;;;;;5.30;1.50;;;32.00;1.00;;;;;;7345501;19;20010;-75
2022/07/18 13:24:10;;;;;;;4.70;1.60;;;32.00;1.00;;;;;;7364214;19;20014;-76
2022/07/18 13:26:43;;;;;;;1.65;1.35;;;32.20;1.00;;;;;;7382261;19;20015;-75
2022/07/18 13:29:14;;;;;;;3.40;1.73;;;32.10;1.00;;;;;;7358242;19;20007;-77
2022/07/18 13:31:48;;;;;;;4.10;1.52;;;32.00;1.00;;;;;;7343262;19;20055;-77